Time;durP1;ratioP1;P1;durP2;ratioP2;P2;SDS_P1;SDS_P2;PMS_P1;PMS_P2;Temp;Humidity;BMP_temperature;BMP_pressure;BME280_temperature;BME280_humidity;BME280_pressure;Samples;Min_cycle;Max_cycle;Signal;HPM_P1;HPM_P2
2023/01/27 00:00:54;;;;;;;121.00;56.10;;;;;;;-0.49;91.94;100507.85;130231;1290;22679;-82
2023/01/27 00:03:54;;;;;;;124.10;54.50;;;;;;;-0.47;91.91;100506.14;130379;1298;25453;-81
2023/01/27 00:06:55;;;;;;;113.00;53.70;;;;;;;-0.46;91.99;100504.70;129977;1291;22578;-82
2023/01/27 00:09:55;;;;;;;121.00;54.40;;;;;;;-0.49;91.77;100504.21;130243;1290;24382;-83
2023/01/27 00:16:15;;;;;;;111.40;52.60;;;;;;;-0.57;91.83;100501.52;129993;1301;22562;-82
2023/01/27 00:19:19;;;;;;;113.30;51.60;;;;;;;-0.61;92.06;100502.98;130283;1292;25478;-83
2023/01/27 00:25:39;;;;;;;114.10;52.90;;;;;;;-0.65;91.82;100500.42;130110;1292;24222;-83
2023/01/27 00:28:41;;;;;;;115.30;55.40;;;;;;;-0.64;92.12;100502.41;130240;1295;22619;-82
2023/01/27 00:35:01;;;;;;;171.40;73.60;;;;;;;-0.59;92.16;100507.71;130214;1294;22612;-83
2023/01/27 00:38:01;;;;;;;123.90;56.80;;;;;;;-0.57;92.11;100507.78;130165;1295;22611;-82
2023/01/27 00:41:18;;;;;;;118.60;55.40;;;;;;;-0.56;92.12;100513.79;130159;1295;22561;-83
2023/01/27 00:44:18;;;;;;;119.70;51.90;;;;;;;-0.54;92.18;100514.05;130133;1301;25370;-82
2023/01/27 00:47:19;;;;;;;112.90;53.20;;;;;;;-0.52;92.15;100517.07;130067;1289;22565;-83
2023/01/27 00:50:20;;;;;;;112.50;53.10;;;;;;;-0.50;92.24;100516.55;130368;1292;24292;-83
2023/01/27 00:53:21;;;;;;;109.60;54.10;;;;;;;-0.47;92.23;100517.98;130222;1299;22685;-80
2023/01/27 00:56:21;;;;;;;110.60;54.50;;;;;;;-0.48;92.00;100516.61;130153;1292;24234;-82
2023/01/27 00:59:22;;;;;;;116.80;55.40;;;;;;;-0.49;92.06;100520.50;130117;1290;22667;-83
2023/01/27 01:02:24;;;;;;;109.10;52.70;;;;;;;-0.49;91.97;100524.19;129897;1283;25501;-83
2023/01/27 01:05:25;;;;;;;111.10;51.00;;;;;;;-0.54;92.04;100525.34;129974;1298;22579;-84
2023/01/27 01:08:26;;;;;;;108.90;52.90;;;;;;;-0.60;91.81;100524.80;129965;1294;24529;-85
2023/01/27 01:11:27;;;;;;;106.30;50.90;;;;;;;-0.64;91.79;100523.46;129881;1299;25539;-81
2023/01/27 01:14:27;;;;;;;108.40;50.60;;;;;;;-0.66;92.21;100522.04;130030;1295;25496;-80
2023/01/27 01:17:28;;;;;;;108.40;51.70;;;;;;;-0.69;92.15;100521.66;130122;1298;22680;-85
2023/01/27 01:20:28;;;;;;;114.30;55.40;;;;;;;-0.69;92.38;100517.84;130030;1294;25351;-82
2023/01/27 01:23:30;;;;;;;115.10;54.70;;;;;;;-0.71;92.29;100513.94;129890;1287;22594;-84
2023/01/27 01:26:30;;;;;;;125.90;57.30;;;;;;;-0.71;92.46;100511.83;130421;1292;22585;-83
2023/01/27 01:29:31;;;;;;;123.00;56.50;;;;;;;-0.65;92.54;100508.77;130218;1298;24241;-81
2023/01/27 01:32:33;;;;;;;120.40;55.90;;;;;;;-0.61;92.70;100509.71;130403;1283;22575;-81
2023/01/27 01:35:37;;;;;;;123.80;58.70;;;;;;;-0.56;92.40;100507.55;130393;1292;26691;-81
2023/01/27 01:38:37;;;;;;;124.40;58.80;;;;;;;-0.53;92.51;100512.38;130395;1294;25344;-82
2023/01/27 01:41:39;;;;;;;132.80;58.30;;;;;;;-0.50;92.59;100511.71;130411;1298;25379;-81
2023/01/27 01:44:44;;;;;;;126.50;58.00;;;;;;;-0.46;92.59;100511.14;130117;1298;22671;-82
2023/01/27 01:47:45;;;;;;;118.90;55.30;;;;;;;-0.44;92.46;100511.05;130094;1299;22563;-81
2023/01/27 01:51:09;;;;;;;124.40;56.30;;;;;;;-0.48;92.24;100508.46;130044;1298;25377;-82
2023/01/27 01:54:10;;;;;;;122.60;54.80;;;;;;;-0.48;92.45;100508.81;130275;1295;22665;-83
2023/01/27 01:57:21;;;;;;;132.60;58.60;;;;;;;-0.44;92.62;100508.61;130207;1295;22594;-83
2023/01/27 02:00:22;;;;;;;124.20;56.90;;;;;;;-0.39;92.64;100507.48;130156;1298;25381;-81
2023/01/27 02:03:26;;;;;;;122.50;58.70;;;;;;;-0.34;92.77;100510.52;129735;1299;23941;-82
2023/01/27 02:06:27;;;;;;;123.80;56.50;;;;;;;-0.32;92.57;100510.89;130295;1294;25278;-81
2023/01/27 02:09:31;;;;;;;126.40;55.60;;;;;;;-0.31;92.67;100511.86;130178;1297;22663;-84
2023/01/27 02:12:32;;;;;;;118.50;54.70;;;;;;;-0.32;92.37;100511.36;130043;1298;22601;-84
2023/01/27 02:15:33;;;;;;;119.70;55.50;;;;;;;-0.31;92.60;100510.45;130087;1299;22553;-81
2023/01/27 02:18:34;;;;;;;119.90;58.10;;;;;;;-0.29;92.48;100515.23;130419;1291;25428;-84
2023/01/27 02:21:36;;;;;;;123.00;56.80;;;;;;;-0.28;92.48;100515.70;130193;1292;22574;-82
2023/01/27 02:24:44;;;;;;;127.70;56.90;;;;;;;-0.28;92.48;100510.14;130207;1298;25419;-81
2023/01/27 02:27:44;;;;;;;114.50;54.10;;;;;;;-0.28;92.49;100518.33;130183;1299;24302;-83
2023/01/27 02:30:45;;;;;;;114.80;53.40;;;;;;;-0.28;92.56;100520.58;129807;1298;22574;-83
2023/01/27 02:33:45;;;;;;;113.50;53.20;;;;;;;-0.29;92.27;100518.67;130090;1289;25415;-81
2023/01/27 02:36:50;;;;;;;111.40;53.50;;;;;;;-0.29;92.39;100522.02;130167;1292;24715;-81
2023/01/27 02:39:53;;;;;;;99.40;49.60;;;;;;;-0.30;92.28;100520.15;130171;1292;25345;-82
2023/01/27 02:42:57;;;;;;;105.80;52.00;;;;;;;-0.32;92.20;100520.92;130239;1298;25761;-82
2023/01/27 02:45:58;;;;;;;101.80;49.20;;;;;;;-0.31;92.31;100521.42;130040;1295;24305;-81
2023/01/27 02:48:59;;;;;;;105.80;50.50;;;;;;;-0.31;92.30;100521.58;130198;1298;22576;-82
2023/01/27 02:51:59;;;;;;;105.90;50.90;;;;;;;-0.31;92.30;100522.96;130098;1292;23147;-82
2023/01/27 02:55:01;;;;;;;104.30;49.90;;;;;;;-0.31;92.14;100519.72;130345;1298;22727;-81
2023/01/27 02:58:02;;;;;;;109.30;54.20;;;;;;;-0.32;92.13;100522.73;130211;1291;24285;-82
2023/01/27 03:01:16;;;;;;;113.20;50.70;;;;;;;-0.36;92.05;100521.17;130162;1295;22604;-82
2023/01/27 03:04:16;;;;;;;109.00;52.80;;;;;;;-0.37;92.15;100524.70;129745;1295;25331;-82
2023/01/27 03:07:17;;;;;;;114.20;52.70;;;;;;;-0.36;92.28;100517.90;129900;1294;22559;-83
2023/01/27 03:10:18;;;;;;;110.80;53.50;;;;;;;-0.35;92.47;100523.91;130113;1295;24310;-84
2023/01/27 03:13:28;;;;;;;110.90;52.70;;;;;;;-0.32;92.50;100523.57;130071;1298;23002;-82
2023/01/27 03:19:52;;;;;;;114.50;52.10;;;;;;;-0.29;92.34;100524.44;130365;1282;22686;-81
2023/01/27 03:22:52;;;;;;;119.10;54.70;;;;;;;-0.31;92.31;100524.04;130069;1298;23195;-83
2023/01/27 03:25:53;;;;;;;120.30;56.40;;;;;;;-0.33;92.55;100527.95;130138;1295;24221;-83
2023/01/27 03:32:16;;;;;;;127.60;59.90;;;;;;;-0.32;92.53;100521.45;130006;1289;22562;-80
2023/01/27 03:35:32;;;;;;;121.60;58.60;;;;;;;-0.30;92.63;100518.42;130056;1301;23156;-81
2023/01/27 03:48:33;;;;;;;139.50;61.60;;;;;;;-0.30;92.87;100520.34;130204;1295;22560;-83
2023/01/27 03:51:33;;;;;;;149.60;64.90;;;;;;;-0.33;92.98;100521.00;130114;1299;26793;-81
2023/01/27 03:54:34;;;;;;;147.50;65.90;;;;;;;-0.34;92.90;100524.03;130177;1291;22562;-82
2023/01/27 03:57:37;;;;;;;150.60;66.00;;;;;;;-0.33;92.93;100520.17;130346;1298;25428;-84
2023/01/27 04:00:37;;;;;;;139.20;64.10;;;;;;;-0.32;93.13;100516.44;130272;1292;22570;-83
2023/01/27 04:06:59;;;;;;;150.40;65.00;;;;;;;-0.36;92.84;100512.85;130018;1295;22656;-82
2023/01/27 04:10:00;;;;;;;141.60;62.20;;;;;;;-0.37;93.11;100505.75;130309;1299;22566;-81
2023/01/27 04:13:00;;;;;;;147.10;66.10;;;;;;;-0.36;93.09;100508.71;130401;1298;22680;-80
2023/01/27 04:16:01;;;;;;;131.30;61.60;;;;;;;-0.36;93.05;100505.18;130071;1298;25631;-83
2023/01/27 04:19:06;;;;;;;134.30;60.60;;;;;;;-0.37;93.02;100503.90;129925;1299;22580;-82
2023/01/27 04:22:12;;;;;;;134.10;62.00;;;;;;;-0.41;92.78;100510.55;130154;1299;23940;-81
2023/01/27 04:25:13;;;;;;;122.80;56.80;;;;;;;-0.43;93.11;100511.20;130254;1292;23454;-81
2023/01/27 04:28:13;;;;;;;127.60;60.10;;;;;;;-0.45;92.99;100510.96;129998;1298;24284;-80
2023/01/27 04:31:14;;;;;;;122.50;58.50;;;;;;;-0.48;93.10;100512.81;130521;1292;23821;-83
2023/01/27 04:34:16;;;;;;;130.00;59.60;;;;;;;-0.49;93.13;100518.57;130178;1298;22944;-82
2023/01/27 04:37:16;;;;;;;119.40;54.60;;;;;;;-0.48;93.17;100517.14;130131;1295;24265;-79
2023/01/27 04:40:18;;;;;;;140.40;58.90;;;;;;;-0.48;93.09;100515.77;130451;1295;22782;-82
2023/01/27 04:43:19;;;;;;;128.80;57.90;;;;;;;-0.49;93.08;100512.53;130114;1283;25508;-82
2023/01/27 04:46:21;;;;;;;125.60;58.20;;;;;;;-0.48;93.26;100514.39;130106;1299;22646;-82
2023/01/27 04:49:22;;;;;;;;;;;;;;;-0.50;93.25;100512.59;130255;1298;22945;-82
2023/01/27 04:52:22;;;;;;;90.40;41.60;;;;;;;-0.52;93.29;100516.00;130316;1292;25647;-82
2023/01/27 04:55:23;;;;;;;123.20;55.50;;;;;;;-0.56;93.16;100525.96;130301;1298;22583;-82
2023/01/27 04:58:23;;;;;;;120.20;56.40;;;;;;;-0.60;93.16;100524.28;130152;1299;22698;-82
2023/01/27 05:01:24;;;;;;;122.10;55.90;;;;;;;-0.64;93.25;100523.13;130225;1298;24224;-85
2023/01/27 05:04:25;;;;;;;;;;;;;;;-0.68;93.37;100527.14;130075;1299;25269;-83
2023/01/27 05:07:26;;;;;;;127.20;55.20;;;;;;;-0.71;93.58;100532.04;130134;1300;24237;-84
2023/01/27 05:10:27;;;;;;;126.80;56.80;;;;;;;-0.74;93.63;100532.86;130420;1295;24263;-83
2023/01/27 05:13:27;;;;;;;112.60;49.90;;;;;;;-0.76;93.64;100531.77;130425;1294;22655;-81
2023/01/27 05:16:28;;;;;;;119.60;52.90;;;;;;;-0.76;93.94;100534.21;130214;1299;25303;-84
2023/01/27 05:19:28;;;;;;;113.00;51.50;;;;;;;-0.73;94.08;100540.47;130330;1292;23554;-83
2023/01/27 05:22:29;;;;;;;124.10;54.30;;;;;;;-0.76;93.98;100548.77;130368;1295;22558;-83
2023/01/27 05:25:29;;;;;;;110.20;50.40;;;;;;;-0.80;93.98;100555.23;130418;1298;23030;-83
2023/01/27 05:28:30;;;;;;;112.10;51.60;;;;;;;-0.81;94.13;100556.20;130298;1298;22555;-83
2023/01/27 05:31:31;;;;;;;116.40;54.80;;;;;;;-0.83;94.18;100557.35;130508;1295;141770;-81
2023/01/27 05:34:31;;;;;;;122.70;53.40;;;;;;;-0.83;94.09;100557.88;130219;1295;22565;-85
2023/01/27 05:37:32;;;;;;;116.80;53.40;;;;;;;-0.82;94.22;100560.22;130828;1298;22684;-83
2023/01/27 05:40:32;;;;;;;116.30;54.00;;;;;;;-0.80;94.24;100559.25;130521;1292;24743;-82
2023/01/27 05:43:38;;;;;;;121.50;56.20;;;;;;;-0.75;94.12;100562.80;130482;1292;23001;-83
2023/01/27 05:46:40;;;;;;;115.20;53.30;;;;;;;-0.74;94.19;100564.66;130400;1292;25427;-83
2023/01/27 05:49:41;;;;;;;132.60;56.00;;;;;;;-0.74;94.26;100565.86;130322;1292;22562;-82
2023/01/27 05:52:41;;;;;;;127.60;59.30;;;;;;;-0.74;94.16;100564.33;130380;1298;22796;-81
2023/01/27 05:55:44;;;;;;;114.20;54.50;;;;;;;-0.73;94.19;100568.05;130338;1294;22709;-81
2023/01/27 05:58:45;;;;;;;136.80;57.40;;;;;;;-0.74;94.17;100572.30;130385;1298;25415;-81
2023/01/27 06:01:46;;;;;;;126.60;56.90;;;;;;;-0.73;94.47;100573.50;130263;1292;22629;-84
2023/01/27 06:04:46;;;;;;;125.00;54.70;;;;;;;-0.73;94.30;100574.52;130305;1298;22589;-81
2023/01/27 06:07:47;;;;;;;123.20;54.50;;;;;;;-0.72;94.28;100572.52;130206;1299;24098;-80
2023/01/27 06:10:47;;;;;;;126.50;56.60;;;;;;;-0.71;94.31;100578.20;130464;1295;22654;-82
2023/01/27 06:13:49;;;;;;;126.50;55.00;;;;;;;-0.69;94.23;100579.33;130163;1298;24247;-80
2023/01/27 06:16:49;;;;;;;118.70;52.50;;;;;;;-0.67;94.37;100585.83;130396;1292;25297;-80
2023/01/27 06:19:50;;;;;;;112.90;51.10;;;;;;;-0.65;94.19;100589.04;130414;1292;22991;-80
2023/01/27 06:22:50;;;;;;;109.70;53.60;;;;;;;-0.66;94.12;100585.60;130307;1290;22664;-80
2023/01/27 06:25:51;;;;;;;115.40;48.70;;;;;;;-0.65;94.19;100583.98;130400;1298;24099;-80
2023/01/27 06:28:51;;;;;;;105.70;51.20;;;;;;;-0.68;94.17;100589.02;130367;1298;25345;-81
2023/01/27 06:31:52;;;;;;;106.20;49.20;;;;;;;-0.71;93.98;100594.36;130380;1298;24395;-80
2023/01/27 06:34:52;;;;;;;113.10;52.20;;;;;;;-0.72;93.93;100598.42;130348;1291;22559;-79
2023/01/27 06:37:53;;;;;;;116.10;54.80;;;;;;;-0.74;94.11;100597.00;130356;1295;24267;-80
2023/01/27 06:40:54;;;;;;;120.70;54.00;;;;;;;-0.76;94.08;100596.92;130329;1292;25451;-80
2023/01/27 06:43:55;;;;;;;121.50;52.00;;;;;;;-0.77;94.20;100598.35;130276;1295;22644;-80
2023/01/27 06:46:55;;;;;;;117.90;53.80;;;;;;;-0.78;94.17;100603.07;130545;1298;22584;-81
2023/01/27 06:49:56;;;;;;;119.90;54.20;;;;;;;-0.78;94.49;100601.38;130424;1298;22661;-80
2023/01/27 06:53:01;;;;;;;143.20;56.70;;;;;;;-0.79;94.48;100600.56;130255;1298;22572;-81
2023/01/27 06:56:02;;;;;;;113.70;51.90;;;;;;;-0.79;94.62;100601.23;130483;1295;22579;-79
2023/01/27 06:59:02;;;;;;;122.00;52.00;;;;;;;-0.80;94.66;100600.42;130130;1292;25420;-81
2023/01/27 07:02:04;;;;;;;119.20;53.60;;;;;;;-0.80;94.53;100598.20;130317;1294;22810;-80
2023/01/27 07:05:04;;;;;;;122.00;53.10;;;;;;;-0.81;94.64;100597.73;130311;1295;25523;-81
2023/01/27 07:08:06;;;;;;;122.40;54.50;;;;;;;-0.81;94.59;100599.41;130466;1295;25323;-81
2023/01/27 07:11:07;;;;;;;122.90;54.30;;;;;;;-0.80;94.64;100597.96;130397;1298;22574;-80
2023/01/27 07:14:07;;;;;;;121.20;52.80;;;;;;;-0.79;94.82;100598.80;130358;1295;23483;-81
2023/01/27 07:17:08;;;;;;;132.90;58.10;;;;;;;-0.79;94.78;100598.30;130359;1298;23022;-82
2023/01/27 07:20:11;;;;;;;153.90;64.90;;;;;;;-0.79;94.84;100603.69;130397;1295;24237;-82
2023/01/27 07:23:12;;;;;;;156.10;66.90;;;;;;;-0.80;94.83;100602.30;130357;1298;25392;-81
2023/01/27 07:26:12;;;;;;;164.30;68.30;;;;;;;-0.78;94.91;100605.52;130383;1298;22561;-80
2023/01/27 07:29:13;;;;;;;201.70;83.20;;;;;;;-0.76;94.99;100603.68;130374;1295;23905;-80
2023/01/27 07:32:14;;;;;;;187.90;75.50;;;;;;;-0.74;94.95;100607.23;130394;1298;25338;-80
2023/01/27 07:35:15;;;;;;;197.50;82.30;;;;;;;-0.71;95.13;100616.28;130387;1295;24238;-83
2023/01/27 07:38:15;;;;;;;195.30;81.80;;;;;;;-0.70;95.00;100620.40;130397;1294;22567;-82
2023/01/27 07:41:16;;;;;;;200.70;83.90;;;;;;;-0.69;94.99;100624.67;130350;1295;22573;-83
2023/01/27 07:44:16;;;;;;;201.90;83.10;;;;;;;-0.69;95.04;100625.19;130332;1293;22669;-80
2023/01/27 07:47:17;;;;;;;196.40;79.50;;;;;;;-0.67;95.31;100630.68;130311;1295;22582;-82
2023/01/27 07:50:18;;;;;;;206.80;81.10;;;;;;;-0.67;95.16;100629.30;130322;1298;22619;-81
2023/01/27 07:53:18;;;;;;;213.60;84.10;;;;;;;-0.67;95.34;100634.98;130404;1298;22566;-82
2023/01/27 07:56:19;;;;;;;209.40;83.20;;;;;;;-0.65;95.33;100633.51;130299;1298;22777;-81
2023/01/27 07:59:19;;;;;;;174.30;76.20;;;;;;;-0.66;95.46;100630.59;130174;1298;22616;-82
2023/01/27 08:02:24;;;;;;;214.00;85.70;;;;;;;-0.66;95.40;100630.11;130382;1298;23793;-82
2023/01/27 08:05:26;;;;;;;218.30;80.00;;;;;;;-0.67;95.63;100630.14;130416;1298;22665;-81
2023/01/27 08:08:27;;;;;;;215.80;84.10;;;;;;;-0.72;95.73;100629.33;130461;1292;24288;-83
2023/01/27 08:11:28;;;;;;;167.00;56.40;;;;;;;-0.75;95.71;100634.01;130341;1298;25323;-81
2023/01/27 08:14:28;;;;;;;176.70;54.50;;;;;;;-0.79;95.99;100634.58;130381;1298;25424;-81
2023/01/27 08:17:29;;;;;;;158.60;51.70;;;;;;;-0.83;95.91;100630.66;130161;1291;22597;-81
2023/01/27 08:20:33;;;;;;;136.90;47.50;;;;;;;-0.86;96.08;100633.07;130354;1293;22567;-81
2023/01/27 08:23:33;;;;;;;155.70;48.90;;;;;;;-0.88;96.16;100637.14;130318;1298;25287;-80
2023/01/27 08:26:34;;;;;;;133.60;46.00;;;;;;;-0.91;96.28;100640.23;130152;1298;24107;-81
2023/01/27 08:29:34;;;;;;;143.20;49.20;;;;;;;-0.93;96.58;100645.05;130423;1297;26121;-81
2023/01/27 08:32:35;;;;;;;141.40;47.90;;;;;;;-0.94;96.58;100641.45;130304;1293;22577;-80
2023/01/27 08:35:37;;;;;;;145.40;47.30;;;;;;;-0.93;96.66;100645.90;130361;1298;25319;-80
2023/01/27 08:38:38;;;;;;;155.00;50.50;;;;;;;-0.94;96.73;100641.45;130392;1292;23018;-81
2023/01/27 08:41:39;;;;;;;145.10;49.30;;;;;;;-0.94;96.76;100644.08;130434;1295;22587;-82
2023/01/27 08:44:39;;;;;;;139.30;48.40;;;;;;;-0.94;96.83;100648.71;130310;1295;22573;-79
2023/01/27 08:47:40;;;;;;;153.50;50.70;;;;;;;-0.92;96.89;100651.09;130357;1295;22586;-82
2023/01/27 08:50:42;;;;;;;145.70;48.90;;;;;;;-0.92;96.95;100655.40;130401;1292;22572;-81
2023/01/27 08:53:43;;;;;;;161.20;53.10;;;;;;;-0.90;97.20;100660.70;130398;1294;22698;-82
2023/01/27 08:56:43;;;;;;;145.40;52.70;;;;;;;-0.90;97.11;100660.39;130336;1292;24294;-81
2023/01/27 08:59:45;;;;;;;138.20;53.10;;;;;;;-0.94;97.16;100661.05;130381;1298;22644;-81
2023/01/27 09:02:46;;;;;;;141.80;52.90;;;;;;;-0.96;96.93;100663.29;130367;1298;22777;-79
2023/01/27 09:05:46;;;;;;;;;;;;;;;-0.99;96.98;100663.05;130502;1298;22540;-81
2023/01/27 09:09:07;;;;;;;163.80;53.60;;;;;;;-0.99;97.06;100666.06;130387;1292;22654;-81
2023/01/27 09:12:08;;;;;;;152.50;52.20;;;;;;;-1.02;96.98;100671.41;130403;1281;22559;-80
2023/01/27 09:15:10;;;;;;;158.30;54.00;;;;;;;-1.04;97.03;100675.17;130366;1293;22664;-80
2023/01/27 09:18:11;;;;;;;140.90;51.00;;;;;;;-1.06;96.83;100670.25;130436;1298;23148;-80
2023/01/27 09:21:11;;;;;;;143.90;53.50;;;;;;;-1.08;96.91;100680.90;130362;1293;22556;-80
2023/01/27 09:24:16;;;;;;;139.90;49.30;;;;;;;-1.08;96.87;100678.34;130447;1292;25431;-80
2023/01/27 09:27:17;;;;;;;147.60;54.20;;;;;;;-1.09;96.74;100686.17;130407;1297;22555;-79
2023/01/27 09:30:17;;;;;;;152.40;54.00;;;;;;;-1.07;96.67;100683.84;130339;1298;22566;-80
2023/01/27 09:33:18;;;;;;;149.40;54.60;;;;;;;-1.05;96.88;100694.15;130040;1299;22680;-80
2023/01/27 09:36:20;;;;;;;155.80;56.10;;;;;;;-1.07;96.90;100691.48;130326;1292;22786;-80
2023/01/27 09:39:22;;;;;;;153.60;53.60;;;;;;;-1.07;96.76;100697.54;130403;1295;24243;-80
2023/01/27 09:43:00;;;;;;;140.30;50.30;;;;;;;-1.06;96.73;100699.04;130367;1298;25367;-81
2023/01/27 09:46:12;;;;;;;145.70;51.30;;;;;;;-1.04;96.62;100703.44;130342;1295;22571;-80
2023/01/27 09:49:38;;;;;;;146.50;52.00;;;;;;;-1.03;96.49;100703.40;130408;1295;22564;-80
2023/01/27 09:53:12;;;;;;;136.00;52.40;;;;;;;-1.03;96.53;100703.25;130360;1298;22658;-81
2023/01/27 09:56:27;;;;;;;135.40;49.80;;;;;;;-1.02;96.41;100705.61;130412;1292;22558;-80
2023/01/27 09:59:56;;;;;;;122.20;47.80;;;;;;;-0.97;96.55;100704.29;130379;1298;22585;-79
2023/01/27 10:03:08;;;;;;;132.50;53.30;;;;;;;-0.91;96.76;100702.46;130395;1292;22568;-79
2023/01/27 10:06:40;;;;;;;119.40;49.50;;;;;;;-0.86;96.42;100700.80;130356;1295;22562;-80
2023/01/27 10:10:06;;;;;;;126.70;49.90;;;;;;;-0.85;96.22;100697.64;130191;1292;22673;-80
2023/01/27 10:13:33;;;;;;;135.60;53.30;;;;;;;-0.87;96.00;100693.03;130303;1299;22584;-81
2023/01/27 10:16:41;;;;;;;133.10;55.70;;;;;;;-0.86;96.16;100691.11;130126;1298;22566;-81
2023/01/27 10:19:59;;;;;;;117.20;50.30;;;;;;;-0.83;96.19;100695.98;130367;1292;24300;-81
2023/01/27 10:23:18;;;;;;;131.20;51.30;;;;;;;-0.82;96.11;100693.47;130318;1299;22723;-81
2023/01/27 10:26:34;;;;;;;135.90;51.00;;;;;;;-0.81;96.11;100695.69;130259;1298;22560;-81
2023/01/27 10:30:16;;;;;;;120.80;48.10;;;;;;;-0.82;96.03;100699.73;130351;1298;25329;-81
2023/01/27 10:33:24;;;;;;;123.40;49.90;;;;;;;-0.84;95.96;100698.09;130248;1298;22578;-79
2023/01/27 10:36:28;;;;;;;130.20;51.00;;;;;;;-0.85;95.84;100698.30;130378;1298;24339;-81
2023/01/27 10:39:56;;;;;;;126.50;50.20;;;;;;;-0.84;95.86;100698.29;130400;1295;25438;-82
2023/01/27 10:43:12;;;;;;;119.90;47.60;;;;;;;-0.82;96.04;100698.51;130403;1292;22567;-82
2023/01/27 10:46:44;;;;;;;105.60;44.60;;;;;;;-0.82;95.90;100702.52;130436;1294;25284;-80
2023/01/27 10:49:53;;;;;;;115.20;46.40;;;;;;;-0.87;95.72;100706.25;130339;1298;22704;-79
2023/01/27 10:53:00;;;;;;;103.00;42.70;;;;;;;-0.91;95.77;100710.77;130337;1298;22566;-79
2023/01/27 10:56:12;;;;;;;102.10;42.30;;;;;;;-0.94;95.93;100708.15;130212;1298;25294;-80
2023/01/27 10:59:30;;;;;;;108.60;46.00;;;;;;;-0.95;96.03;100705.27;130449;1295;25274;-80
2023/01/27 11:02:44;;;;;;;106.30;42.60;;;;;;;-0.94;96.13;100703.95;130430;1295;22759;-80
2023/01/27 11:05:50;;;;;;;108.10;43.90;;;;;;;-0.91;96.39;100703.13;130510;1299;22563;-80
2023/01/27 11:09:04;;;;;;;101.40;43.30;;;;;;;-0.92;96.40;100702.64;130439;1292;22749;-80
2023/01/27 11:12:11;;;;;;;113.20;45.30;;;;;;;-0.92;96.38;100703.17;130366;1298;25546;-80
2023/01/27 11:15:26;;;;;;;112.10;44.80;;;;;;;-0.93;96.48;100699.59;130474;1298;22553;-81
2023/01/27 11:18:29;;;;;;;107.70;45.90;;;;;;;-0.97;96.46;100696.83;130423;1298;22569;-80
2023/01/27 11:21:31;;;;;;;125.00;47.40;;;;;;;-0.99;96.52;100695.74;130389;1298;22568;-80
2023/01/27 11:24:44;;;;;;;124.20;47.30;;;;;;;-1.01;96.42;100692.89;130403;1299;25437;-79
2023/01/27 11:28:03;;;;;;;107.20;43.30;;;;;;;-1.01;96.41;100692.71;130086;1299;22560;-80
2023/01/27 11:31:31;;;;;;;119.10;45.90;;;;;;;-0.99;96.45;100686.85;130369;1298;24105;-80
2023/01/27 11:34:56;;;;;;;119.20;46.50;;;;;;;-0.95;96.63;100684.59;130352;1295;22571;-80
2023/01/27 11:37:57;;;;;;;117.90;46.80;;;;;;;-0.90;96.53;100682.60;130344;1299;25561;-80
2023/01/27 11:40:57;;;;;;;118.10;47.50;;;;;;;-0.87;96.68;100680.88;130383;1299;25446;-79
2023/01/27 11:44:05;;;;;;;113.20;47.10;;;;;;;-0.86;96.56;100679.27;130311;1295;22931;-82
2023/01/27 11:47:07;;;;;;;113.00;46.40;;;;;;;-0.84;96.16;100684.40;130474;1299;24997;-80
2023/01/27 11:50:16;;;;;;;123.10;48.30;;;;;;;-0.81;96.51;100683.85;130509;1295;22600;-81
2023/01/27 11:53:30;;;;;;;111.20;45.40;;;;;;;-0.78;96.43;100684.72;130501;1298;22566;-79
2023/01/27 11:56:35;;;;;;;119.30;49.90;;;;;;;-0.75;96.35;100682.88;130417;1292;22650;-81
2023/01/27 11:59:39;;;;;;;118.20;49.20;;;;;;;-0.71;96.33;100680.55;130134;1292;22563;-80
2023/01/27 12:03:04;;;;;;;121.60;48.80;;;;;;;-0.65;96.44;100681.13;130068;1294;26555;-80
2023/01/27 12:06:30;;;;;;;112.70;48.20;;;;;;;-0.59;96.47;100677.67;130188;1292;22571;-80
2023/01/27 12:09:33;;;;;;;110.10;47.10;;;;;;;-0.55;96.62;100672.92;130094;1291;22568;-81
2023/01/27 12:12:36;;;;;;;121.80;48.60;;;;;;;-0.53;96.38;100669.01;130385;1295;24384;-80
2023/01/27 12:15:46;;;;;;;121.40;50.30;;;;;;;-0.52;96.07;100669.80;130084;1299;22672;-81
2023/01/27 12:19:01;;;;;;;115.60;48.60;;;;;;;-0.49;96.22;100671.55;130590;1295;22596;-79
2023/01/27 12:22:09;;;;;;;126.20;52.90;;;;;;;-0.49;96.05;100671.19;130454;1293;24403;-81
2023/01/27 12:25:18;;;;;;;121.30;51.00;;;;;;;-0.46;96.04;100671.05;130474;1298;22594;-81
2023/01/27 12:28:27;;;;;;;139.00;55.20;;;;;;;-0.49;96.20;100663.38;130365;1295;23246;-81
2023/01/27 12:31:31;;;;;;;105.30;44.30;;;;;;;-0.43;96.00;100667.28;130426;1292;23908;-80
2023/01/27 12:34:35;;;;;;;111.10;45.20;;;;;;;-0.44;95.83;100667.34;130456;1295;22793;-81
2023/01/27 12:37:37;;;;;;;113.00;45.80;;;;;;;-0.49;95.78;100664.94;130460;1296;23317;-80
2023/01/27 12:40:42;;;;;;;138.90;54.20;;;;;;;-0.50;95.73;100663.95;130569;1299;22662;-81
2023/01/27 12:43:59;;;;;;;131.90;52.90;;;;;;;-0.49;95.90;100664.59;130680;1295;22771;-83
2023/01/27 12:47:15;;;;;;;126.40;50.70;;;;;;;-0.50;95.68;100660.33;130125;1302;23291;-81
2023/01/27 12:50:22;;;;;;;124.40;49.00;;;;;;;-0.52;96.04;100661.27;130271;1291;25385;-80
2023/01/27 12:53:26;;;;;;;152.60;58.00;;;;;;;-0.54;95.60;100665.89;130374;1295;22688;-81
2023/01/27 12:56:30;;;;;;;145.90;58.30;;;;;;;-0.54;95.71;100670.45;130336;1298;24231;-82
2023/01/27 12:59:32;;;;;;;134.00;52.40;;;;;;;-0.54;95.72;100672.51;130373;1296;22574;-81
2023/01/27 13:02:33;;;;;;;117.30;51.10;;;;;;;-0.55;95.56;100676.94;130400;1283;22562;-81
2023/01/27 13:05:40;;;;;;;123.70;49.70;;;;;;;-0.56;95.58;100676.63;130501;1298;26779;-80
2023/01/27 13:08:42;;;;;;;114.10;48.70;;;;;;;-0.56;95.41;100674.73;130603;1293;25278;-80
2023/01/27 13:11:43;;;;;;;119.90;50.60;;;;;;;-0.58;95.44;100679.49;130461;1292;22583;-80
2023/01/27 13:14:48;;;;;;;130.40;56.20;;;;;;;-0.59;95.45;100685.29;130359;1295;22670;-82
2023/01/27 13:17:51;;;;;;;118.00;48.10;;;;;;;-0.59;95.68;100688.27;130504;1292;23947;-83
2023/01/27 13:21:16;;;;;;;132.70;54.70;;;;;;;-0.60;95.42;100689.86;130512;1292;22578;-82
2023/01/27 13:24:32;;;;;;;130.20;52.30;;;;;;;-0.61;95.52;100694.09;130433;1292;22599;-80
2023/01/27 13:27:39;;;;;;;116.90;50.00;;;;;;;-0.61;95.70;100694.77;130357;1298;23515;-81
2023/01/27 13:30:45;;;;;;;118.70;50.80;;;;;;;-0.60;95.61;100700.86;130404;1298;24234;-81
2023/01/27 13:33:59;;;;;;;118.10;49.20;;;;;;;-0.60;95.77;100701.50;130392;1295;22563;-80
2023/01/27 13:37:07;;;;;;;102.20;45.20;;;;;;;-0.59;95.88;100706.48;130398;1298;22580;-80
2023/01/27 13:40:27;;;;;;;105.80;44.30;;;;;;;-0.59;95.79;100709.83;130451;1298;25396;-81
2023/01/27 13:43:34;;;;;;;111.10;46.90;;;;;;;-0.59;95.88;100714.48;130437;1298;22695;-80
2023/01/27 13:46:39;;;;;;;116.90;48.80;;;;;;;-0.57;95.80;100720.81;130390;1292;25299;-81
2023/01/27 13:49:45;;;;;;;107.20;46.00;;;;;;;-0.56;95.93;100720.23;130471;1293;24009;-79
2023/01/27 13:52:56;;;;;;;130.60;52.40;;;;;;;-0.54;96.05;100732.14;130410;1298;22594;-80
2023/01/27 13:56:00;;;;;;;109.90;48.50;;;;;;;-0.51;96.12;100731.99;130387;1292;22597;-81
2023/01/27 13:59:06;;;;;;;110.20;46.10;;;;;;;-0.49;96.20;100733.75;130397;1293;22566;-80
2023/01/27 14:02:19;;;;;;;109.30;46.70;;;;;;;-0.43;96.19;100734.52;130329;1297;22569;-81
2023/01/27 14:06:11;;;;;;;119.70;48.50;;;;;;;-0.40;96.01;100742.01;130323;1298;23764;-81
2023/01/27 14:09:27;;;;;;;115.50;46.30;;;;;;;-0.39;96.10;100741.60;129663;1292;25359;-80
2023/01/27 14:12:37;;;;;;;107.40;45.60;;;;;;;-0.38;95.87;100745.40;130329;1295;25326;-81